^^
MeteoGriva-Weather Station Historical Data
Daily Summary for June 16, 2020 Units:  Both    English   Metric
Daily Weekly Monthly Yearly Custom
  High: Low: Average:
Temperature: 50.9 °F /  10.5 °C 38.1 °F /  3.4 °C 43 °F /  6.1 °C
Dew Point: 43.9 °F /  6.6 °C 36.1 °F /  2.3 °C 39.2 °F /  4 °C
Humidity: 99% 72.8% 87%
Wind Speed: 4.4mph /  7.1km/h - 0.2mph /  0.3km/h
Wind Gust: 10.1mph /  16.3km/h - -
Wind- - SE
Pressure: 30.4 in /  1029.1 hPa 30.2 in /  1023.7 hPa -
Precipitation: 0 in /  0.0 mm    
Historical Graphs
 
 
Tabular Data for June 16, 2020
Time Temperature Dew Point Pressure Wind Wind Speed Wind Gust Humidity Rainfall Rate (Hourly) solar
00:04 41.5 °F /  5.3 °C 39.4 °F /  4.1 °C 30.4in /  1029.1hPa Calm     92% 0in /  0.0mm 0 W/m2
00:09 41.7 °F /  5.4 °C 39.4 °F /  4.1 °C 30.4in /  1029.1hPa Calm     91.4% 0in /  0.0mm 0 W/m2
00:14 41.7 °F /  5.4 °C 39.6 °F /  4.2 °C 30.4in /  1029.1hPa Calm     92% 0in /  0.0mm 0 W/m2
00:19 41.5 °F /  5.3 °C 39.6 °F /  4.2 °C 30.4in /  1029.1hPa Calm     92.7% 0in /  0.0mm 0 W/m2
00:24 41.4 °F /  5.2 °C 39.6 °F /  4.2 °C 30.4in /  1029.1hPa Calm     93% 0in /  0.0mm 0 W/m2
00:29 41.2 °F /  5.1 °C 39.4 °F /  4.1 °C 30.4in /  1029.1hPa Calm     93% 0in /  0.0mm 0 W/m2
00:34 41.2 °F /  5.1 °C 39.6 °F /  4.2 °C 30.4in /  1028.8hPa Calm     94% 0in /  0.0mm 0 W/m2
00:39 40.8 °F /  4.9 °C 39.4 °F /  4.1 °C 30.4in /  1028.8hPa Calm     94.6% 0in /  0.0mm 0 W/m2
00:44 40.1 °F /  4.5 °C 38.8 °F /  3.8 °C 30.4in /  1028.8hPa Calm     95% 0in /  0.0mm 0 W/m2
00:49 40.1 °F /  4.5 °C 38.8 °F /  3.8 °C 30.4in /  1028.8hPa Calm     95% 0in /  0.0mm 0 W/m2
00:54 40.1 °F /  4.5 °C 38.8 °F /  3.8 °C 30.4in /  1028.8hPa Calm     95% 0in /  0.0mm 0 W/m2
00:59 40.1 °F /  4.5 °C 38.8 °F /  3.8 °C 30.4in /  1028.8hPa Calm     95.1% 0in /  0.0mm 0 W/m2
01:04 39.9 °F /  4.4 °C 39 °F /  3.9 °C 30.4in /  1028.8hPa Calm     96.6% 0in /  0.0mm 0 W/m2
01:09 39.9 °F /  4.4 °C 38.7 °F /  3.7 °C 30.4in /  1028.8hPa Calm     95.3% 0in /  0.0mm 0 W/m2
01:14 39.9 °F /  4.4 °C 38.3 °F /  3.5 °C 30.4in /  1028.8hPa Calm     94% 0in /  0.0mm 0 W/m2
01:19 39.9 °F /  4.4 °C 38.3 °F /  3.5 °C 30.4in /  1028.8hPa Calm     94% 0in /  0.0mm 0 W/m2
01:24 39.9 °F /  4.4 °C 38.3 °F /  3.5 °C 30.4in /  1028.8hPa Calm     93.6% 0in /  0.0mm 0 W/m2
01:29 40.1 °F /  4.5 °C 38.1 °F /  3.4 °C 30.4in /  1028.8hPa Calm     92.3% 0in /  0.0mm 0 W/m2
01:34 40.1 °F /  4.5 °C 37.9 °F /  3.3 °C 30.4in /  1028.8hPa Calm     91.4% 0in /  0.0mm 0 W/m2
01:39 40.5 °F /  4.7 °C 38.3 °F /  3.5 °C 30.4in /  1028.8hPa Calm     92% 0in /  0.0mm 0 W/m2
01:44 40.8 °F /  4.9 °C 38.7 °F /  3.7 °C 30.4in /  1028.5hPa Calm     91.8% 0in /  0.0mm 0 W/m2
01:49 40.8 °F /  4.9 °C 38.3 °F /  3.5 °C 30.4in /  1028.5hPa Calm     90.3% 0in /  0.0mm 0 W/m2
01:54 41 °F /  5 °C 38.3 °F /  3.5 °C 30.4in /  1028.5hPa Calm     90% 0in /  0.0mm 0 W/m2
01:59 41.2 °F /  5.1 °C 38.3 °F /  3.5 °C 30.4in /  1028.5hPa Calm     89.6% 0in /  0.0mm 0 W/m2
02:04 41.5 °F /  5.3 °C 38.3 °F /  3.5 °C 30.4in /  1028.5hPa Calm     88.2% 0in /  0.0mm 0 W/m2
02:09 41.5 °F /  5.3 °C 38.5 °F /  3.6 °C 30.4in /  1028.8hPa Calm     88.7% 0in /  0.0mm 0 W/m2
02:14 41.5 °F /  5.3 °C 38.3 °F /  3.5 °C 30.4in /  1028.5hPa Calm     88% 0in /  0.0mm 0 W/m2
02:19 41.7 °F /  5.4 °C 38.5 °F /  3.6 °C 30.4in /  1028.5hPa Calm     87.8% 0in /  0.0mm 0 W/m2
02:24 41.7 °F /  5.4 °C 38.5 °F /  3.6 °C 30.4in /  1028.5hPa Calm     88.3% 0in /  0.0mm 0 W/m2
02:29 41.7 °F /  5.4 °C 37.9 °F /  3.3 °C 30.4in /  1028.5hPa Calm     86.3% 0in /  0.0mm 0 W/m2
02:34 41.9 °F /  5.5 °C 37.8 °F /  3.2 °C 30.4in /  1028.5hPa Calm     85.6% 0in /  0.0mm 0 W/m2
02:39 41.9 °F /  5.5 °C 37.8 °F /  3.2 °C 30.4in /  1028.5hPa Calm     85.1% 0in /  0.0mm 0 W/m2
02:44 41.7 °F /  5.4 °C 38.1 °F /  3.4 °C 30.4in /  1028.1hPa Calm     87.1% 0in /  0.0mm 0 W/m2
02:49 41.5 °F /  5.3 °C 38.1 °F /  3.4 °C 30.4in /  1028.1hPa Calm     87.4% 0in /  0.0mm 0 W/m2
02:54 41.5 °F /  5.3 °C 38.1 °F /  3.4 °C 30.4in /  1028.1hPa Calm     87.4% 0in /  0.0mm 0 W/m2
02:59 41.4 °F /  5.2 °C 38.1 °F /  3.4 °C 30.4in /  1028.5hPa Calm     88% 0in /  0.0mm 0 W/m2
03:04 41.4 °F /  5.2 °C 37.8 °F /  3.2 °C 30.4in /  1028.1hPa Calm     87.2% 0in /  0.0mm 0 W/m2
03:09 41.4 °F /  5.2 °C 37.8 °F /  3.2 °C 30.4in /  1028.5hPa Calm     86.4% 0in /  0.0mm 0 W/m2
03:14 41.4 °F /  5.2 °C 37.4 °F /  3 °C 30.4in /  1028.1hPa Calm     85.4% 0in /  0.0mm 0 W/m2
03:19 41.5 °F /  5.3 °C 37.6 °F /  3.1 °C 30.4in /  1028.1hPa Calm     86% 0in /  0.0mm 0 W/m2
03:24 41.5 °F /  5.3 °C 37.6 °F /  3.1 °C 30.4in /  1028.1hPa Calm     86% 0in /  0.0mm 0 W/m2
03:29 41.4 °F /  5.2 °C 37.6 °F /  3.1 °C 30.4in /  1028.1hPa Calm     86.3% 0in /  0.0mm 0 W/m2
03:34 41.4 °F /  5.2 °C 37.8 °F /  3.2 °C 30.4in /  1028.1hPa Calm     87% 0in /  0.0mm 0 W/m2
03:39 41.4 °F /  5.2 °C 37.8 °F /  3.2 °C 30.4in /  1028.1hPa Calm     86.8% 0in /  0.0mm 0 W/m2
03:44 41.2 °F /  5.1 °C 37.2 °F /  2.9 °C 30.4in /  1027.8hPa Calm     85.7% 0in /  0.0mm 0 W/m2
03:49 41.2 °F /  5.1 °C 37.6 °F /  3.1 °C 30.4in /  1028.1hPa Calm     87% 0in /  0.0mm 0 W/m2
03:54 41 °F /  5 °C 37.9 °F /  3.3 °C 30.4in /  1028.1hPa Calm     88.1% 0in /  0.0mm 0 W/m2
03:59 41 °F /  5 °C 37.8 °F /  3.2 °C 30.4in /  1027.8hPa Calm     88% 0in /  0.0mm 0 W/m2
04:04 40.8 °F /  4.9 °C 37.6 °F /  3.1 °C 30.4in /  1027.8hPa Calm     88% 0in /  0.0mm 0 W/m2
04:09 40.8 °F /  4.9 °C 37.6 °F /  3.1 °C 30.4in /  1027.8hPa Calm     88% 0in /  0.0mm 0 W/m2
04:14 40.8 °F /  4.9 °C 37.6 °F /  3.1 °C 30.4in /  1027.8hPa Calm     87.8% 0in /  0.0mm 0 W/m2
04:19 40.8 °F /  4.9 °C 37.4 °F /  3 °C 30.4in /  1027.8hPa Calm     87.4% 0in /  0.0mm 0 W/m2
04:24 40.6 °F /  4.8 °C 37 °F /  2.8 °C 30.4in /  1027.8hPa Calm     87% 0in /  0.0mm 0 W/m2
04:29 40.6 °F /  4.8 °C 36.9 °F /  2.7 °C 30.4in /  1027.8hPa Calm     86.1% 0in /  0.0mm 0 W/m2
04:34 40.6 °F /  4.8 °C 36.9 °F /  2.7 °C 30.4in /  1027.8hPa Calm     86% 0in /  0.0mm 0 W/m2
04:39 40.8 °F /  4.9 °C 36.9 °F /  2.7 °C 30.4in /  1027.8hPa Calm     85.1% 0in /  0.0mm 0 W/m2
04:44 41.4 °F /  5.2 °C 37 °F /  2.8 °C 30.3in /  1027.4hPa Calm     84.3% 0in /  0.0mm 0 W/m2
04:49 41.4 °F /  5.2 °C 36.9 °F /  2.7 °C 30.3in /  1027.4hPa Calm     83.8% 0in /  0.0mm 0 W/m2
04:54 41.4 °F /  5.2 °C 36.7 °F /  2.6 °C 30.3in /  1027.4hPa Calm     83.2% 0in /  0.0mm 0 W/m2
04:59 41.5 °F /  5.3 °C 37 °F /  2.8 °C 30.3in /  1027.4hPa Calm     84% 0in /  0.0mm 0 W/m2
05:04 41.2 °F /  5.1 °C 37.2 °F /  2.9 °C 30.3in /  1027.4hPa Calm     85.9% 0in /  0.0mm 0 W/m2
05:09 41 °F /  5 °C 37.6 °F /  3.1 °C 30.3in /  1027.4hPa Calm     87.6% 0in /  0.0mm 0 W/m2
05:14 40.8 °F /  4.9 °C 37.8 °F /  3.2 °C 30.3in /  1027.4hPa Calm     89% 0in /  0.0mm 0 W/m2
05:19 40.3 °F /  4.6 °C 37.6 °F /  3.1 °C 30.3in /  1027.4hPa Calm     89.8% 0in /  0.0mm 0 W/m2
05:24 39.6 °F /  4.2 °C 36.3 °F /  2.4 °C 30.3in /  1027.4hPa Calm     88.3% 0in /  0.0mm 0 W/m2
05:29 39.6 °F /  4.2 °C 36.3 °F /  2.4 °C 30.3in /  1027.4hPa Calm     87.9% 0in /  0.0mm 0 W/m2
05:34 39.6 °F /  4.2 °C 36.5 °F /  2.5 °C 30.3in /  1027.4hPa NNW 0.2mph /  0.3km/h 2.5mph /  4km/h 88.7% 0in /  0.0mm 0 W/m2
05:39 39.6 °F /  4.2 °C 36.5 °F /  2.5 °C 30.3in /  1027.4hPa Calm     89% 0in /  0.0mm 0 W/m2
05:44 39.9 °F /  4.4 °C 36.7 °F /  2.6 °C 30.3in /  1027.4hPa Calm     88.4% 0in /  0.0mm 0 W/m2
05:49 39.7 °F /  4.3 °C 36.5 °F /  2.5 °C 30.3in /  1027.4hPa Calm     88.3% 0in /  0.0mm 0 W/m2
05:54 39.9 °F /  4.4 °C 36.1 °F /  2.3 °C 30.3in /  1027.4hPa Calm     86.8% 0in /  0.0mm 0 W/m2
05:59 39.9 °F /  4.4 °C 36.1 °F /  2.3 °C 30.3in /  1027.4hPa Calm     86% 0in /  0.0mm 0 W/m2
06:04 40.6 °F /  4.8 °C 36.7 °F /  2.6 °C 30.3in /  1027.4hPa Calm     85.6% 0in /  0.0mm 0 W/m2
06:09 40.6 °F /  4.8 °C 36.7 °F /  2.6 °C 30.3in /  1027.4hPa Calm     85.6% 0in /  0.0mm 0 W/m2
06:14 40.6 °F /  4.8 °C 36.7 °F /  2.6 °C 30.3in /  1027.4hPa Calm     85.4% 0in /  0.0mm 0 W/m2
06:19 40.6 °F /  4.8 °C 36.5 °F /  2.5 °C 30.3in /  1027.4hPa Calm     84.9% 0in /  0.0mm 0 W/m2
06:24 41.2 °F /  5.1 °C 36.7 °F /  2.6 °C 30.3in /  1027.4hPa Calm     84% 0in /  0.0mm 0 W/m2
06:29 41.2 °F /  5.1 °C 36.5 °F /  2.5 °C 30.3in /  1027.4hPa Calm     83.1% 0in /  0.0mm 0 W/m2
06:34 41.2 °F /  5.1 °C 36.5 °F /  2.5 °C 30.3in /  1027.4hPa Calm     83% 0in /  0.0mm 0 W/m2
06:39 41.4 °F /  5.2 °C 36.5 °F /  2.5 °C 30.3in /  1027.4hPa Calm     82.9% 0in /  0.0mm 0 W/m2
06:44 42.3 °F /  5.7 °C 37.2 °F /  2.9 °C 30.3in /  1027.4hPa Calm     82% 0in /  0.0mm 0 W/m2
06:49 42.3 °F /  5.7 °C 37.2 °F /  2.9 °C 30.3in /  1027.1hPa Calm     82% 0in /  0.0mm 0 W/m2
06:54 42.3 °F /  5.7 °C 37 °F /  2.8 °C 30.3in /  1027.4hPa Calm     81.4% 0in /  0.0mm 0 W/m2
06:59 42.3 °F /  5.7 °C 36.9 °F /  2.7 °C 30.3in /  1027.4hPa Calm     81% 0in /  0.0mm 0 W/m2
07:04 42.1 °F /  5.6 °C 37 °F /  2.8 °C 30.3in /  1027.4hPa Calm     82.4% 0in /  0.0mm 0 W/m2
07:09 42.1 °F /  5.6 °C 37.2 °F /  2.9 °C 30.3in /  1027.4hPa Calm     82.7% 0in /  0.0mm 0 W/m2
07:14 42.1 °F /  5.6 °C 37 °F /  2.8 °C 30.3in /  1027.4hPa Calm     82.1% 0in /  0.0mm 0 W/m2
07:19 41.9 °F /  5.5 °C 36.9 °F /  2.7 °C 30.3in /  1027.4hPa Calm     82% 0in /  0.0mm 0 W/m2
07:24 41.5 °F /  5.3 °C 36.5 °F /  2.5 °C 30.3in /  1027.4hPa Calm     82.7% 0in /  0.0mm 0 W/m2
07:29 41.4 °F /  5.2 °C 36.9 °F /  2.7 °C 30.3in /  1027.4hPa Calm     84% 0in /  0.0mm 0 W/m2
07:34 41.2 °F /  5.1 °C 36.9 °F /  2.7 °C 30.3in /  1027.4hPa Calm     84.6% 0in /  0.0mm 0 W/m2
07:39 41.2 °F /  5.1 °C 36.5 °F /  2.5 °C 30.3in /  1027.4hPa Calm     83.2% 0in /  0.0mm 0 W/m2
07:44 42.1 °F /  5.6 °C 36.7 °F /  2.6 °C 30.3in /  1027.4hPa Calm     80.9% 0in /  0.0mm 0 W/m2
07:49 42.4 °F /  5.8 °C 36.5 °F /  2.5 °C 30.3in /  1027.4hPa Calm     79.3% 0in /  0.0mm 0 W/m2
07:54 42.6 °F /  5.9 °C 36.9 °F /  2.7 °C 30.3in /  1027.4hPa Calm     80.2% 0in /  0.0mm 0 W/m2
07:59 42.6 °F /  5.9 °C 37 °F /  2.8 °C 30.3in /  1027.4hPa Calm     80.4% 0in /  0.0mm 4 W/m2
08:04 43.2 °F /  6.2 °C 37 °F /  2.8 °C 30.3in /  1027.4hPa Calm     79% 0in /  0.0mm 8 W/m2
08:09 43.3 °F /  6.3 °C 37.4 °F /  3 °C 30.3in /  1027.4hPa Calm     79.7% 0in /  0.0mm 13 W/m2
08:14 43.3 °F /  6.3 °C 37.9 °F /  3.3 °C 30.3in /  1027.4hPa Calm     80.9% 0in /  0.0mm 20 W/m2
08:19 43.3 °F /  6.3 °C 37.8 °F /  3.2 °C 30.3in /  1027.4hPa SSW 0.2mph /  0.3km/h 2.5mph /  4km/h 80.4% 0in /  0.0mm 25 W/m2
08:24 43.7 °F /  6.5 °C 37.6 °F /  3.1 °C 30.3in /  1027.4hPa SSW 0.5mph /  0.8km/h 4.9mph /  7.9km/h 78.8% 0in /  0.0mm 30 W/m2
08:29 43.9 °F /  6.6 °C 37.4 °F /  3 °C 30.3in /  1027.4hPa Calm     78% 0in /  0.0mm 34 W/m2
08:34 44.2 °F /  6.8 °C 37.4 °F /  3 °C 30.3in /  1027.4hPa Calm     76.4% 0in /  0.0mm 39 W/m2
08:39 44.4 °F /  6.9 °C 38.3 °F /  3.5 °C 30.3in /  1027.4hPa Calm     78.9% 0in /  0.0mm 43 W/m2
08:44 43.9 °F /  6.6 °C 38.1 °F /  3.4 °C 30.3in /  1027.4hPa Calm     80% 0in /  0.0mm 46 W/m2
08:49 43.5 °F /  6.4 °C 38.3 °F /  3.5 °C 30.4in /  1027.8hPa Calm     81.4% 0in /  0.0mm 50 W/m2
08:54 43.3 °F /  6.3 °C 38.8 °F /  3.8 °C 30.4in /  1027.8hPa Calm     83.6% 0in /  0.0mm 54 W/m2
08:59 43.3 °F /  6.3 °C 38.8 °F /  3.8 °C 30.4in /  1027.8hPa Calm     84% 0in /  0.0mm 57 W/m2
09:04 42.8 °F /  6 °C 38.1 °F /  3.4 °C 30.4in /  1027.8hPa Calm     83.9% 0in /  0.0mm 60 W/m2
09:09 42.6 °F /  5.9 °C 38.3 °F /  3.5 °C 30.4in /  1027.8hPa Calm     84.8% 0in /  0.0mm 63 W/m2
09:14 42.6 °F /  5.9 °C 38.3 °F /  3.5 °C 30.4in /  1027.8hPa Calm     84.4% 0in /  0.0mm 65 W/m2
09:19 42.6 °F /  5.9 °C 39.2 °F /  4 °C 30.4in /  1027.8hPa North 0.1mph /  0.2km/h 2.5mph /  4km/h 87.7% 0in /  0.0mm 67 W/m2
09:24 41.7 °F /  5.4 °C 39.2 °F /  4 °C 30.4in /  1027.8hPa Calm   2.5mph /  4km/h 90.2% 0in /  0.0mm 69 W/m2
09:29 41.5 °F /  5.3 °C 38.7 °F /  3.7 °C 30.4in /  1027.8hPa NNE 0.7mph /  1.1km/h 4.9mph /  7.9km/h 89.4% 0in /  0.0mm 70 W/m2
09:34 41.5 °F /  5.3 °C 38.7 °F /  3.7 °C 30.4in /  1027.8hPa North 0.9mph /  1.4km/h 4.9mph /  7.9km/h 89.4% 0in /  0.0mm 71 W/m2
09:39 41.7 °F /  5.4 °C 38.7 °F /  3.7 °C 30.4in /  1027.8hPa North 0.6mph /  1km/h 4.9mph /  7.9km/h 88.4% 0in /  0.0mm 73 W/m2
09:44 42.3 °F /  5.7 °C 38.8 °F /  3.8 °C 30.4in /  1027.8hPa NNE 2.2mph /  3.6km/h 4.9mph /  7.9km/h 87.3% 0in /  0.0mm 74 W/m2
09:49 42.4 °F /  5.8 °C 38.8 °F /  3.8 °C 30.4in /  1027.8hPa NNE 0.6mph /  1km/h 4.9mph /  7.9km/h 87% 0in /  0.0mm 75 W/m2
09:54 42.4 °F /  5.8 °C 38.8 °F /  3.8 °C 30.4in /  1028.1hPa Calm   2.5mph /  4km/h 87% 0in /  0.0mm 77 W/m2
09:59 42.4 °F /  5.8 °C 38.8 °F /  3.8 °C 30.4in /  1028.1hPa Calm     87% 0in /  0.0mm 78 W/m2
10:04 42.8 °F /  6 °C 39.4 °F /  4.1 °C 30.4in /  1028.1hPa NE 0.1mph /  0.2km/h 2.5mph /  4km/h 87.2% 0in /  0.0mm 79 W/m2
10:09 43.2 °F /  6.2 °C 39 °F /  3.9 °C 30.4in /  1028.1hPa NE 0.2mph /  0.4km/h 4.9mph /  7.9km/h 85.2% 0in /  0.0mm 79 W/m2
10:14 43.3 °F /  6.3 °C 38.5 °F /  3.6 °C 30.4in /  1028.1hPa Calm     82.6% 0in /  0.0mm 80 W/m2
10:19 43.7 °F /  6.5 °C 38.5 °F /  3.6 °C 30.4in /  1028.1hPa Calm     81.4% 0in /  0.0mm 81 W/m2
10:24 44.2 °F /  6.8 °C 39 °F /  3.9 °C 30.4in /  1028.1hPa Calm     81.5% 0in /  0.0mm 82 W/m2
10:29 44.6 °F /  7 °C 39.2 °F /  4 °C 30.4in /  1028.5hPa Calm     81.2% 0in /  0.0mm 82 W/m2
10:34 44.6 °F /  7 °C 38.7 °F /  3.7 °C 30.4in /  1028.5hPa Calm     79.5% 0in /  0.0mm 83 W/m2
10:39 44.8 °F /  7.1 °C 38.7 °F /  3.7 °C 30.4in /  1028.5hPa Calm     78.9% 0in /  0.0mm 83 W/m2
10:44 45.5 °F /  7.5 °C 39.4 °F /  4.1 °C 30.4in /  1028.5hPa Calm     78.8% 0in /  0.0mm 84 W/m2
10:49 46 °F /  7.8 °C 39.4 °F /  4.1 °C 30.4in /  1028.1hPa Calm     77.6% 0in /  0.0mm 85 W/m2
10:54 46.6 °F /  8.1 °C 38.7 °F /  3.7 °C 30.4in /  1027.8hPa Calm     73.9% 0in /  0.0mm 87 W/m2
10:59 47.1 °F /  8.4 °C 39.6 °F /  4.2 °C 30.4in /  1027.8hPa Calm     74.9% 0in /  0.0mm 88 W/m2
11:04 48.2 °F /  9 °C 41.2 °F /  5.1 °C 30.4in /  1027.8hPa Calm     76.8% 0in /  0.0mm 91 W/m2
11:09 48.9 °F /  9.4 °C 42.6 °F /  5.9 °C 30.4in /  1027.8hPa East 0.9mph /  1.5km/h 4.9mph /  7.9km/h 78.8% 0in /  0.0mm 92 W/m2
11:14 48.7 °F /  9.3 °C 42.8 °F /  6 °C 30.4in /  1027.8hPa Calm     80.1% 0in /  0.0mm 96 W/m2
11:19 48.7 °F /  9.3 °C 42.6 °F /  5.9 °C 30.3in /  1027.4hPa South 0.1mph /  0.1km/h 2.5mph /  4km/h 79.6% 0in /  0.0mm 99 W/m2
11:24 48.2 °F /  9 °C 42.3 °F /  5.7 °C 30.3in /  1027.4hPa SSE 0.4mph /  0.6km/h 4.9mph /  7.9km/h 80% 0in /  0.0mm 102 W/m2
11:29 47.8 °F /  8.8 °C 42.1 °F /  5.6 °C 30.3in /  1027.4hPa ESE 0.6mph /  1km/h 4.9mph /  7.9km/h 80.4% 0in /  0.0mm 104 W/m2
11:34 47.7 °F /  8.7 °C 42.1 °F /  5.6 °C 30.3in /  1027.4hPa SSE 1mph /  1.6km/h 4.9mph /  7.9km/h 81.1% 0in /  0.0mm 108 W/m2
11:39 47.5 °F /  8.6 °C 42.3 °F /  5.7 °C 30.3in /  1027.4hPa SE 0.4mph /  0.6km/h 4.9mph /  7.9km/h 82.3% 0in /  0.0mm 111 W/m2
11:44 46.9 °F /  8.3 °C 41.9 °F /  5.5 °C 30.3in /  1027.4hPa SE 0.4mph /  0.7km/h 2.5mph /  4km/h 82.1% 0in /  0.0mm 114 W/m2
11:49 46.6 °F /  8.1 °C 41 °F /  5 °C 30.3in /  1027.4hPa Calm   4.9mph /  7.9km/h 81.1% 0in /  0.0mm 115 W/m2
11:54 46.6 °F /  8.1 °C 41.2 °F /  5.1 °C 30.3in /  1027.1hPa Calm     81.7% 0in /  0.0mm 94 W/m2
11:59 46.8 °F /  8.2 °C 41 °F /  5 °C 30.3in /  1027.1hPa Calm     80% 0in /  0.0mm 83 W/m2
12:04 47.3 °F /  8.5 °C 41.5 °F /  5.3 °C 30.3in /  1027.1hPa Calm     79.9% 0in /  0.0mm 83 W/m2
12:09 48.6 °F /  9.2 °C 42.3 °F /  5.7 °C 30.3in /  1026.8hPa South 1.1mph /  1.7km/h 7.6mph /  12.2km/h 78.7% 0in /  0.0mm 83 W/m2
12:14 48.6 °F /  9.2 °C 41.9 °F /  5.5 °C 30.3in /  1026.8hPa SSE 2.1mph /  3.4km/h 7.6mph /  12.2km/h 77.7% 0in /  0.0mm 81 W/m2
12:19 48.7 °F /  9.3 °C 42.1 °F /  5.6 °C 30.3in /  1026.8hPa South 1.7mph /  2.8km/h 7.6mph /  12.2km/h 77.4% 0in /  0.0mm 105 W/m2
12:24 49.3 °F /  9.6 °C 42.1 °F /  5.6 °C 30.3in /  1026.4hPa SE 1.9mph /  3.1km/h 7.6mph /  12.2km/h 76.1% 0in /  0.0mm 148 W/m2
12:29 50 °F /  10 °C 42.8 °F /  6 °C 30.3in /  1026.4hPa SSE 4.4mph /  7.1km/h 7.6mph /  12.2km/h 76% 0in /  0.0mm 164 W/m2
12:34 50 °F /  10 °C 42.4 °F /  5.8 °C 30.3in /  1026.4hPa SSE 3.5mph /  5.6km/h 7.6mph /  12.2km/h 74.8% 0in /  0.0mm 174 W/m2
12:39 50.2 °F /  10.1 °C 42.4 °F /  5.8 °C 30.3in /  1026.1hPa South 3.5mph /  5.6km/h 10.1mph /  16.3km/h 74.8% 0in /  0.0mm 184 W/m2
12:44 50.4 °F /  10.2 °C 42.4 °F /  5.8 °C 30.3in /  1026.1hPa SSE 4mph /  6.4km/h 10.1mph /  16.3km/h 73.9% 0in /  0.0mm 194 W/m2
12:49 50.5 °F /  10.3 °C 42.3 °F /  5.7 °C 30.3in /  1026.1hPa South 4.3mph /  6.9km/h 10.1mph /  16.3km/h 72.8% 0in /  0.0mm 205 W/m2
12:54 50.4 °F /  10.2 °C 42.1 °F /  5.6 °C 30.3in /  1025.7hPa South 4.3mph /  7km/h 10.1mph /  16.3km/h 73% 0in /  0.0mm 217 W/m2
12:59 50.2 °F /  10.1 °C 42.1 °F /  5.6 °C 30.3in /  1025.7hPa SE 2.5mph /  4.1km/h 10.1mph /  16.3km/h 73.8% 0in /  0.0mm 227 W/m2
13:04 49.6 °F /  9.8 °C 42.1 °F /  5.6 °C 30.3in /  1025.7hPa SSE 1.3mph /  2.1km/h 7.6mph /  12.2km/h 74.7% 0in /  0.0mm 238 W/m2
13:09 48.9 °F /  9.4 °C 41.2 °F /  5.1 °C 30.3in /  1025.7hPa ESE 0.5mph /  0.8km/h 4.9mph /  7.9km/h 74.6% 0in /  0.0mm 248 W/m2
13:14 48.9 °F /  9.4 °C 41.5 °F /  5.3 °C 30.3in /  1025.7hPa East 0.7mph /  1.2km/h 4.9mph /  7.9km/h 75.4% 0in /  0.0mm 260 W/m2
13:19 48.7 °F /  9.3 °C 43 °F /  6.1 °C 30.3in /  1025.4hPa Calm   4.9mph /  7.9km/h 80.1% 0in /  0.0mm 270 W/m2
13:24 48 °F /  8.9 °C 42.1 °F /  5.6 °C 30.3in /  1025.7hPa ESE 0.1mph /  0.1km/h 2.5mph /  4km/h 80.3% 0in /  0.0mm 276 W/m2
13:29 46.8 °F /  8.2 °C 41 °F /  5 °C 30.3in /  1025.4hPa Calm     80.2% 0in /  0.0mm 284 W/m2
13:34 46.8 °F /  8.2 °C 41.4 °F /  5.2 °C 30.3in /  1025.4hPa Calm     81.3% 0in /  0.0mm 287 W/m2
13:39 46.6 °F /  8.1 °C 41.4 °F /  5.2 °C 30.3in /  1025.4hPa Calm     81.8% 0in /  0.0mm 293 W/m2
13:44 46.9 °F /  8.3 °C 41 °F /  5 °C 30.3in /  1025.1hPa Calm   2.5mph /  4km/h 79.8% 0in /  0.0mm 299 W/m2
13:49 47.7 °F /  8.7 °C 41.2 °F /  5.1 °C 30.3in /  1025.1hPa Calm     78.2% 0in /  0.0mm 303 W/m2
13:54 47.8 °F /  8.8 °C 41.2 °F /  5.1 °C 30.3in /  1025.1hPa ESE 0.2mph /  0.3km/h 4.9mph /  7.9km/h 77.3% 0in /  0.0mm 309 W/m2
13:59 48 °F /  8.9 °C 41.2 °F /  5.1 °C 30.3in /  1025.1hPa Calm   2.5mph /  4km/h 76.7% 0in /  0.0mm 310 W/m2
14:04 48.6 °F /  9.2 °C 41.7 °F /  5.4 °C 30.3in /  1025.1hPa Calm     76.6% 0in /  0.0mm 311 W/m2
14:09 49.6 °F /  9.8 °C 42.8 °F /  6 °C 30.3in /  1025.1hPa SE 0.4mph /  0.6km/h 4.9mph /  7.9km/h 76.8% 0in /  0.0mm 311 W/m2
14:14 49.6 °F /  9.8 °C 42.4 °F /  5.8 °C 30.3in /  1025.1hPa Calm   2.5mph /  4km/h 75.8% 0in /  0.0mm 311 W/m2
14:19 49.8 °F /  9.9 °C 42.6 °F /  5.9 °C 30.3in /  1024.7hPa Calm     76.2% 0in /  0.0mm 310 W/m2
14:24 49.8 °F /  9.9 °C 42.8 °F /  6 °C 30.3in /  1024.7hPa SSE 0.2mph /  0.3km/h 4.9mph /  7.9km/h 76.2% 0in /  0.0mm 306 W/m2
14:29 50.4 °F /  10.2 °C 43.2 °F /  6.2 °C 30.3in /  1024.7hPa SSE 0.6mph /  1km/h 7.6mph /  12.2km/h 76.3% 0in /  0.0mm 304 W/m2
14:34 50.4 °F /  10.2 °C 43.3 °F /  6.3 °C 30.3in /  1024.7hPa SSE 0.3mph /  0.5km/h 4.9mph /  7.9km/h 76.9% 0in /  0.0mm 301 W/m2
14:39 50.4 °F /  10.2 °C 43.3 °F /  6.3 °C 30.3in /  1024.7hPa Calm   4.9mph /  7.9km/h 77.1% 0in /  0.0mm 300 W/m2
14:44 50.4 °F /  10.2 °C 43.5 °F /  6.4 °C 30.3in /  1024.4hPa South 0.5mph /  0.8km/h 4.9mph /  7.9km/h 77.5% 0in /  0.0mm 292 W/m2
14:49 50.7 °F /  10.4 °C 43.7 °F /  6.5 °C 30.3in /  1024.4hPa South 0.6mph /  1km/h 4.9mph /  7.9km/h 77% 0in /  0.0mm 288 W/m2
14:54 50.7 °F /  10.4 °C 43.7 °F /  6.5 °C 30.3in /  1024.4hPa SE 1.1mph /  1.7km/h 4.9mph /  7.9km/h 77% 0in /  0.0mm 287 W/m2
14:59 50.5 °F /  10.3 °C 43.9 °F /  6.6 °C 30.3in /  1024.4hPa SE 1.4mph /  2.3km/h 7.6mph /  12.2km/h 78% 0in /  0.0mm 277 W/m2
15:04 50.5 °F /  10.3 °C 43.5 °F /  6.4 °C 30.3in /  1024.4hPa SSE 1.2mph /  1.9km/h 7.6mph /  12.2km/h 77% 0in /  0.0mm 275 W/m2
15:09 50.4 °F /  10.2 °C 43.3 °F /  6.3 °C 30.3in /  1024.4hPa SE 0.4mph /  0.6km/h 4.9mph /  7.9km/h 77.2% 0in /  0.0mm 273 W/m2
15:14 50.4 °F /  10.2 °C 43.3 °F /  6.3 °C 30.3in /  1024.4hPa South 0.7mph /  1.2km/h 4.9mph /  7.9km/h 77.2% 0in /  0.0mm 265 W/m2
15:19 50.4 °F /  10.2 °C 43.3 °F /  6.3 °C 30.3in /  1024.4hPa Calm   2.5mph /  4km/h 77.2% 0in /  0.0mm 263 W/m2
15:24 50.4 °F /  10.2 °C 43.5 °F /  6.4 °C 30.2in /  1024.0hPa SSE 0.1mph /  0.2km/h 4.9mph /  7.9km/h 77.4% 0in /  0.0mm 258 W/m2
15:29 50.4 °F /  10.2 °C 43.3 °F /  6.3 °C 30.2in /  1024.0hPa Calm   4.9mph /  7.9km/h 77.1% 0in /  0.0mm 255 W/m2
15:34 50.5 °F /  10.3 °C 43.2 °F /  6.2 °C 30.2in /  1024.0hPa Calm     75.5% 0in /  0.0mm 249 W/m2
15:39 50.9 °F /  10.5 °C 42.8 °F /  6 °C 30.2in /  1024.0hPa Calm     73.7% 0in /  0.0mm 242 W/m2
15:44 50.9 °F /  10.5 °C 43.7 °F /  6.5 °C 30.2in /  1024.0hPa Calm     76.3% 0in /  0.0mm 233 W/m2
15:49 48.6 °F /  9.2 °C 42.1 °F /  5.6 °C 30.2in /  1023.7hPa Calm     77.8% 0in /  0.0mm 223 W/m2
15:54 48.7 °F /  9.3 °C 41.4 °F /  5.2 °C 30.2in /  1023.7hPa Calm     75.2% 0in /  0.0mm 215 W/m2
15:59 49.1 °F /  9.5 °C 41.9 °F /  5.5 °C 30.2in /  1023.7hPa Calm     76.2% 0in /  0.0mm 200 W/m2
16:04 49.3 °F /  9.6 °C 42.4 °F /  5.8 °C 30.2in /  1024.0hPa Calm     77.1% 0in /  0.0mm 80 W/m2
16:09 48.9 °F /  9.4 °C 42.6 °F /  5.9 °C 30.2in /  1024.0hPa Calm     78.8% 0in /  0.0mm 43 W/m2
16:14 48.7 °F /  9.3 °C 43.2 °F /  6.2 °C 30.2in /  1024.0hPa Calm     80.6% 0in /  0.0mm 40 W/m2
16:19 48.6 °F /  9.2 °C 43.2 °F /  6.2 °C 30.2in /  1024.0hPa Calm     81.4% 0in /  0.0mm 38 W/m2
16:24 48 °F /  8.9 °C 43.2 °F /  6.2 °C 30.2in /  1024.0hPa Calm     83% 0in /  0.0mm 34 W/m2
16:29 45.3 °F /  7.4 °C 40.8 °F /  4.9 °C 30.2in /  1024.0hPa Calm     84.2% 0in /  0.0mm 31 W/m2
16:34 45.3 °F /  7.4 °C 41 °F /  5 °C 30.2in /  1023.7hPa Calm     85% 0in /  0.0mm 28 W/m2
16:39 45.1 °F /  7.3 °C 41.2 °F /  5.1 °C 30.2in /  1023.7hPa Calm     86.1% 0in /  0.0mm 25 W/m2
16:44 45 °F /  7.2 °C 41.4 °F /  5.2 °C 30.2in /  1024.0hPa Calm     87.2% 0in /  0.0mm 23 W/m2
16:49 43.9 °F /  6.6 °C 40.6 °F /  4.8 °C 30.2in /  1024.0hPa Calm     87.9% 0in /  0.0mm 21 W/m2
16:54 43.7 °F /  6.5 °C 40.5 °F /  4.7 °C 30.2in /  1024.0hPa Calm     88% 0in /  0.0mm 19 W/m2
16:59 43.5 °F /  6.4 °C 40.5 °F /  4.7 °C 30.2in /  1024.0hPa Calm     88.9% 0in /  0.0mm 17 W/m2
17:04 43.3 °F /  6.3 °C 40.3 °F /  4.6 °C 30.2in /  1024.0hPa Calm     89% 0in /  0.0mm 14 W/m2
17:09 42.4 °F /  5.8 °C 39.7 °F /  4.3 °C 30.2in /  1024.0hPa Calm     90% 0in /  0.0mm 11 W/m2
17:14 42.1 °F /  5.6 °C 39.6 °F /  4.2 °C 30.2in /  1024.0hPa Calm     91% 0in /  0.0mm 8 W/m2
17:19 42.1 °F /  5.6 °C 39.6 °F /  4.2 °C 30.2in /  1024.0hPa Calm     91% 0in /  0.0mm 6 W/m2
17:24 42.1 °F /  5.6 °C 39.9 °F /  4.4 °C 30.2in /  1024.0hPa Calm     91.9% 0in /  0.0mm 4 W/m2
17:29 41.5 °F /  5.3 °C 39.4 °F /  4.1 °C 30.2in /  1024.0hPa Calm     92.3% 0in /  0.0mm 0 W/m2
17:34 41.4 °F /  5.2 °C 39.6 °F /  4.2 °C 30.2in /  1024.0hPa Calm     93% 0in /  0.0mm 0 W/m2
17:39 41.2 °F /  5.1 °C 39.6 °F /  4.2 °C 30.3in /  1024.4hPa Calm     93.6% 0in /  0.0mm 0 W/m2
17:44 41.2 °F /  5.1 °C 39.6 °F /  4.2 °C 30.3in /  1024.4hPa Calm     94% 0in /  0.0mm 0 W/m2
17:49 40.6 °F /  4.8 °C 39 °F /  3.9 °C 30.3in /  1024.4hPa Calm     94% 0in /  0.0mm 0 W/m2
17:54 40.3 °F /  4.6 °C 38.8 °F /  3.8 °C 30.3in /  1024.4hPa Calm     94.7% 0in /  0.0mm 0 W/m2
17:59 40.3 °F /  4.6 °C 39.2 °F /  4 °C 30.3in /  1024.4hPa Calm     95.7% 0in /  0.0mm 0 W/m2
18:04 40.3 °F /  4.6 °C 39 °F /  3.9 °C 30.3in /  1024.4hPa Calm     95.2% 0in /  0.0mm 0 W/m2
18:09 40.5 °F /  4.7 °C 39 °F /  3.9 °C 30.3in /  1024.7hPa Calm     94.8% 0in /  0.0mm 0 W/m2
18:14 40.5 °F /  4.7 °C 38.8 °F /  3.8 °C 30.3in /  1024.7hPa Calm     94% 0in /  0.0mm 0 W/m2
18:19 40.5 °F /  4.7 °C 38.8 °F /  3.8 °C 30.3in /  1024.7hPa Calm     94.1% 0in /  0.0mm 0 W/m2
18:24 40.3 °F /  4.6 °C 39 °F /  3.9 °C 30.3in /  1024.7hPa Calm     95.1% 0in /  0.0mm 0 W/m2
18:29 39.9 °F /  4.4 °C 38.8 °F /  3.8 °C 30.3in /  1024.7hPa Calm     95% 0in /  0.0mm 0 W/m2
18:34 39.9 °F /  4.4 °C 38.7 °F /  3.7 °C 30.3in /  1024.7hPa Calm     95% 0in /  0.0mm 0 W/m2
18:39 39.9 °F /  4.4 °C 38.5 °F /  3.6 °C 30.3in /  1024.7hPa Calm     94.3% 0in /  0.0mm 0 W/m2
18:44 39.9 °F /  4.4 °C 38.7 °F /  3.7 °C 30.3in /  1025.1hPa Calm     95.2% 0in /  0.0mm 0 W/m2
18:49 39.9 °F /  4.4 °C 38.8 °F /  3.8 °C 30.3in /  1025.1hPa Calm     95.7% 0in /  0.0mm 0 W/m2
18:54 39.9 °F /  4.4 °C 38.7 °F /  3.7 °C 30.3in /  1025.1hPa Calm     94.8% 0in /  0.0mm 0 W/m2
18:59 39.9 °F /  4.4 °C 38.7 °F /  3.7 °C 30.3in /  1025.1hPa Calm     95% 0in /  0.0mm 0 W/m2
19:04 39.9 °F /  4.4 °C 38.7 °F /  3.7 °C 30.3in /  1025.1hPa Calm     94.8% 0in /  0.0mm 0 W/m2
19:09 39.7 °F /  4.3 °C 38.5 °F /  3.6 °C 30.3in /  1025.1hPa Calm     94.8% 0in /  0.0mm 0 W/m2
19:14 39.6 °F /  4.2 °C 38.5 °F /  3.6 °C 30.3in /  1025.1hPa Calm     96% 0in /  0.0mm 0 W/m2
19:19 39.6 °F /  4.2 °C 38.5 °F /  3.6 °C 30.3in /  1025.1hPa Calm     95.7% 0in /  0.0mm 0 W/m2
19:24 39.6 °F /  4.2 °C 38.3 °F /  3.5 °C 30.3in /  1025.1hPa Calm     95% 0in /  0.0mm 0 W/m2
19:29 39.6 °F /  4.2 °C 38.3 °F /  3.5 °C 30.3in /  1025.1hPa Calm     95.7% 0in /  0.0mm 0 W/m2
19:34 39.4 °F /  4.1 °C 38.3 °F /  3.5 °C 30.3in /  1025.1hPa Calm     95.8% 0in /  0.0mm 0 W/m2
19:39 39.4 °F /  4.1 °C 38.1 °F /  3.4 °C 30.3in /  1025.1hPa Calm     95% 0in /  0.0mm 0 W/m2
19:44 39.4 °F /  4.1 °C 38.1 °F /  3.4 °C 30.3in /  1025.1hPa Calm     95% 0in /  0.0mm 0 W/m2
19:49 39.7 °F /  4.3 °C 38.3 °F /  3.5 °C 30.3in /  1025.4hPa Calm     94.7% 0in /  0.0mm 0 W/m2
19:54 39.9 °F /  4.4 °C 38.5 °F /  3.6 °C 30.3in /  1025.4hPa Calm     94.5% 0in /  0.0mm 0 W/m2
19:59 39.9 °F /  4.4 °C 38.5 °F /  3.6 °C 30.3in /  1025.4hPa Calm     94.6% 0in /  0.0mm 0 W/m2
20:04 39.9 °F /  4.4 °C 38.3 °F /  3.5 °C 30.3in /  1025.4hPa Calm     94.2% 0in /  0.0mm 0 W/m2
20:09 39.7 °F /  4.3 °C 38.7 °F /  3.7 °C 30.3in /  1025.4hPa Calm     95% 0in /  0.0mm 0 W/m2
20:14 39.7 °F /  4.3 °C 38.5 °F /  3.6 °C 30.3in /  1025.1hPa Calm     95% 0in /  0.0mm 0 W/m2
20:19 39.7 °F /  4.3 °C 38.3 °F /  3.5 °C 30.3in /  1025.7hPa Calm     94.3% 0in /  0.0mm 0 W/m2
20:24 39.7 °F /  4.3 °C 38.1 °F /  3.4 °C 30.3in /  1025.7hPa Calm     94% 0in /  0.0mm 0 W/m2
20:29 40.1 °F /  4.5 °C 38.3 °F /  3.5 °C 30.3in /  1025.4hPa Calm     93.3% 0in /  0.0mm 0 W/m2
20:34 40.1 °F /  4.5 °C 38.5 °F /  3.6 °C 30.3in /  1025.7hPa Calm     94% 0in /  0.0mm 0 W/m2
20:39 40.1 °F /  4.5 °C 38.7 °F /  3.7 °C 30.3in /  1025.7hPa Calm     94.4% 0in /  0.0mm 0 W/m2
20:44 40.1 °F /  4.5 °C 38.5 °F /  3.6 °C 30.3in /  1026.1hPa Calm     94% 0in /  0.0mm 0 W/m2
20:49 39.7 °F /  4.3 °C 38.5 °F /  3.6 °C 30.3in /  1026.1hPa Calm     94.8% 0in /  0.0mm 0 W/m2
20:54 39.7 °F /  4.3 °C 38.5 °F /  3.6 °C 30.3in /  1026.1hPa Calm     95% 0in /  0.0mm 0 W/m2
20:59 39.6 °F /  4.2 °C 38.3 °F /  3.5 °C 30.3in /  1025.7hPa Calm     95% 0in /  0.0mm 0 W/m2
21:04 39.6 °F /  4.2 °C 38.3 °F /  3.5 °C 30.3in /  1025.7hPa Calm     95% 0in /  0.0mm 0 W/m2
21:09 40.1 °F /  4.5 °C 38.5 °F /  3.6 °C 30.3in /  1025.7hPa Calm     94.2% 0in /  0.0mm 0 W/m2
21:14 40.5 °F /  4.7 °C 39 °F /  3.9 °C 30.3in /  1025.7hPa Calm     94.7% 0in /  0.0mm 0 W/m2
21:19 40.3 °F /  4.6 °C 38.7 °F /  3.7 °C 30.3in /  1025.7hPa Calm     94% 0in /  0.0mm 0 W/m2
21:24 40.3 °F /  4.6 °C 38.7 °F /  3.7 °C 30.3in /  1025.4hPa Calm     94% 0in /  0.0mm 0 W/m2
21:29 40.1 °F /  4.5 °C 38.8 °F /  3.8 °C 30.3in /  1025.4hPa Calm     95% 0in /  0.0mm 0 W/m2
21:34 39.7 °F /  4.3 °C 38.5 °F /  3.6 °C 30.3in /  1025.4hPa Calm     95% 0in /  0.0mm 0 W/m2
21:39 39.9 °F /  4.4 °C 38.3 °F /  3.5 °C 30.3in /  1025.4hPa Calm     93.8% 0in /  0.0mm 0 W/m2
21:44 39.9 °F /  4.4 °C 38.5 °F /  3.6 °C 30.3in /  1025.7hPa Calm     94.4% 0in /  0.0mm 0 W/m2
21:49 39.7 °F /  4.3 °C 38.5 °F /  3.6 °C 30.3in /  1025.7hPa Calm     95% 0in /  0.0mm 0 W/m2
21:54 39.6 °F /  4.2 °C 38.5 °F /  3.6 °C 30.3in /  1025.7hPa Calm     95.9% 0in /  0.0mm 0 W/m2
21:59 39.6 °F /  4.2 °C 38.3 °F /  3.5 °C 30.3in /  1025.7hPa Calm     95.2% 0in /  0.0mm 0 W/m2
22:04 39.6 °F /  4.2 °C 37.9 °F /  3.3 °C 30.3in /  1026.1hPa Calm     93.9% 0in /  0.0mm 0 W/m2
22:09 39.9 °F /  4.4 °C 38.3 °F /  3.5 °C 30.3in /  1025.7hPa Calm     93.9% 0in /  0.0mm 0 W/m2
22:14 39.9 °F /  4.4 °C 38.5 °F /  3.6 °C 30.3in /  1025.7hPa Calm     94.4% 0in /  0.0mm 0 W/m2
22:19 39.9 °F /  4.4 °C 38.7 °F /  3.7 °C 30.3in /  1025.7hPa Calm     95% 0in /  0.0mm 0 W/m2
22:24 39.9 °F /  4.4 °C 38.7 °F /  3.7 °C 30.3in /  1025.7hPa Calm     95.1% 0in /  0.0mm 0 W/m2
22:29 39.9 °F /  4.4 °C 38.7 °F /  3.7 °C 30.3in /  1025.7hPa Calm     95% 0in /  0.0mm 0 W/m2
22:34 39.9 °F /  4.4 °C 38.7 °F /  3.7 °C 30.3in /  1025.7hPa Calm     95% 0in /  0.0mm 0 W/m2
22:39 39.9 °F /  4.4 °C 38.7 °F /  3.7 °C 30.3in /  1025.7hPa Calm     95.3% 0in /  0.0mm 0 W/m2
22:44 39.9 °F /  4.4 °C 39 °F /  3.9 °C 30.3in /  1025.7hPa Calm     96.4% 0in /  0.0mm 0 W/m2
22:49 39.7 °F /  4.3 °C 38.8 °F /  3.8 °C 30.3in /  1025.7hPa Calm     96.8% 0in /  0.0mm 0 W/m2
22:54 39.4 °F /  4.1 °C 38.8 °F /  3.8 °C 30.3in /  1025.7hPa SSW 0.1mph /  0.2km/h 2.5mph /  4km/h 98% 0in /  0.0mm 0 W/m2
22:59 39.4 °F /  4.1 °C 39 °F /  3.9 °C 30.3in /  1026.1hPa Calm     98.3% 0in /  0.0mm 0 W/m2
23:04 39.4 °F /  4.1 °C 39 °F /  3.9 °C 30.3in /  1025.7hPa Calm     98.6% 0in /  0.0mm 0 W/m2
23:09 39.2 °F /  4 °C 39 °F /  3.9 °C 30.3in /  1026.1hPa Calm     98.9% 0in /  0.0mm 0 W/m2
23:14 39 °F /  3.9 °C 38.7 °F /  3.7 °C 30.3in /  1026.1hPa Calm     98.8% 0in /  0.0mm 0 W/m2
23:19 39 °F /  3.9 °C 38.8 °F /  3.8 °C 30.3in /  1026.1hPa Calm     99% 0in /  0.0mm 0 W/m2
23:24 39 °F /  3.9 °C 38.8 °F /  3.8 °C 30.3in /  1025.7hPa Calm     99% 0in /  0.0mm 0 W/m2
23:29 39 °F /  3.9 °C 38.8 °F /  3.8 °C 30.3in /  1026.1hPa Calm     99% 0in /  0.0mm 0 W/m2
23:34 39 °F /  3.9 °C 38.8 °F /  3.8 °C 30.3in /  1026.1hPa Calm     99% 0in /  0.0mm 0 W/m2
23:39 38.8 °F /  3.8 °C 38.8 °F /  3.8 °C 30.3in /  1026.1hPa Calm     99% 0in /  0.0mm 0 W/m2
23:44 38.8 °F /  3.8 °C 38.7 °F /  3.7 °C 30.3in /  1026.1hPa Calm     99% 0in /  0.0mm 0 W/m2
23:49 38.7 °F /  3.7 °C 38.3 °F /  3.5 °C 30.3in /  1026.1hPa Calm     98.8% 0in /  0.0mm 0 W/m2
23:54 38.1 °F /  3.4 °C 37.4 °F /  3 °C 30.3in /  1026.1hPa Calm     97.2% 0in /  0.0mm 0 W/m2
23:59 38.1 °F /  3.4 °C 37.4 °F /  3 °C 30.3in /  1025.7hPa Calm     96.9% 0in /  0.0mm 0 W/m2
Juneau County Weather
Compliments of Weather Underground - 2 mb